createdAt,value
2024-03-16T00:02:52.804Z,10.43
2024-03-16T00:05:54.250Z,10.33
2024-03-16T00:08:55.832Z,10.25
2024-03-16T00:11:57.351Z,10.63
2024-03-16T00:14:58.798Z,10.65
2024-03-16T00:18:01.057Z,10.54
2024-03-16T00:21:02.515Z,10.28
2024-03-16T00:24:04.098Z,10.41
2024-03-16T00:27:05.805Z,10.31
2024-03-16T00:30:07.763Z,10.17
2024-03-16T00:33:09.371Z,10.04
2024-03-16T00:36:11.024Z,10.14
2024-03-16T00:39:24.563Z,10.06
2024-03-16T00:42:26.864Z,10.39
2024-03-16T00:45:28.408Z,10.21
2024-03-16T00:48:29.892Z,10.56
2024-03-16T00:51:31.446Z,10.40
2024-03-16T00:54:32.917Z,10.27
2024-03-16T00:57:34.392Z,10.39
2024-03-16T01:00:36.205Z,10.07
2024-03-16T01:03:37.776Z,10.27
2024-03-16T01:06:39.259Z,10.13
2024-03-16T01:09:40.791Z,10.24
2024-03-16T01:12:42.283Z,10.11
2024-03-16T01:15:43.728Z,10.18
2024-03-16T01:18:45.343Z,9.97
2024-03-16T01:21:46.804Z,10.27
2024-03-16T01:24:48.517Z,9.99
2024-03-16T01:27:50.038Z,10.04
2024-03-16T01:30:51.555Z,10.14
2024-03-16T01:33:53.070Z,10.28
2024-03-16T01:36:54.605Z,10.08
2024-03-16T01:39:56.937Z,10.11
2024-03-16T01:42:58.598Z,10.17
2024-03-16T01:46:00.128Z,9.95
2024-03-16T01:49:02.012Z,10.07
2024-03-16T01:52:04.793Z,10.14
2024-03-16T01:55:06.633Z,10.07
2024-03-16T01:58:08.825Z,9.91
2024-03-16T02:01:10.523Z,9.88
2024-03-16T02:04:12.159Z,9.85
2024-03-16T02:07:13.764Z,10.17
2024-03-16T02:10:15.868Z,10.15
2024-03-16T02:13:17.488Z,10.22
2024-03-16T02:16:19.109Z,9.98
2024-03-16T02:19:20.787Z,9.97
2024-03-16T02:22:22.309Z,9.96
2024-03-16T02:25:24.266Z,9.83
2024-03-16T02:28:25.709Z,9.81
2024-03-16T02:31:27.151Z,9.98
2024-03-16T02:34:28.661Z,9.61
2024-03-16T02:37:30.177Z,9.90
2024-03-16T02:40:33.004Z,9.59
2024-03-16T02:43:35.233Z,9.33
2024-03-16T02:46:36.692Z,9.51
2024-03-16T02:49:38.177Z,9.78
2024-03-16T02:52:39.800Z,9.59
2024-03-16T02:55:41.216Z,9.63
2024-03-16T02:58:42.718Z,9.98
2024-03-16T03:01:44.288Z,9.51
2024-03-16T03:04:45.743Z,9.52
2024-03-16T03:07:47.191Z,9.82
2024-03-16T03:10:48.690Z,9.99
2024-03-16T03:13:50.462Z,9.44
2024-03-16T03:16:51.912Z,9.48
2024-03-16T03:19:53.310Z,9.41
2024-03-16T03:22:54.898Z,9.22
2024-03-16T03:25:56.384Z,9.26
2024-03-16T03:28:57.852Z,9.41
2024-03-16T03:32:00.066Z,9.53
2024-03-16T03:35:01.493Z,9.30
2024-03-16T03:38:03.670Z,9.20
2024-03-16T03:41:05.155Z,9.10
2024-03-16T03:44:21.659Z,8.90
2024-03-16T03:47:31.406Z,9.11
2024-03-16T03:50:39.735Z,9.06
2024-03-16T03:53:42.032Z,9.15
2024-03-16T03:56:43.441Z,9.33
2024-03-16T03:59:44.903Z,8.84
2024-03-16T04:02:46.742Z,9.19
2024-03-16T04:05:53.314Z,9.23
2024-03-16T04:08:54.801Z,9.29
2024-03-16T04:11:56.294Z,9.37
2024-03-16T04:14:58.225Z,9.01
2024-03-16T04:17:59.732Z,9.20
2024-03-16T04:21:02.364Z,9.20
2024-03-16T04:24:04.005Z,9.28
2024-03-16T04:27:05.659Z,9.12
2024-03-16T04:30:07.907Z,9.28
2024-03-16T04:33:09.485Z,9.23
2024-03-16T04:36:11.065Z,9.22
2024-03-16T04:39:12.528Z,9.10
2024-03-16T04:42:13.972Z,9.20
2024-03-16T04:45:15.415Z,9.22
2024-03-16T04:48:17.170Z,9.18
2024-03-16T04:51:18.681Z,8.99
2024-03-16T04:54:20.112Z,9.13
2024-03-16T04:57:21.569Z,9.08
2024-03-16T05:00:23.067Z,9.08
2024-03-16T05:03:24.585Z,9.27
2024-03-16T05:06:26.671Z,8.79
2024-03-16T05:09:28.429Z,8.94
2024-03-16T05:12:30.146Z,8.81
2024-03-16T05:15:31.697Z,9.13
2024-03-16T05:18:33.301Z,8.93
2024-03-16T05:21:35.991Z,9.14
2024-03-16T05:24:38.257Z,8.77
2024-03-16T05:27:39.936Z,8.91
2024-03-16T05:30:41.552Z,8.74
2024-03-16T05:33:43.522Z,8.66
2024-03-16T05:36:45.080Z,8.48
2024-03-16T05:39:46.727Z,8.66
2024-03-16T05:42:48.252Z,8.86
2024-03-16T05:45:52.038Z,8.87
2024-03-16T05:48:53.528Z,8.90
2024-03-16T05:51:55.065Z,9.00
2024-03-16T05:54:56.693Z,8.84
2024-03-16T05:57:58.213Z,9.14
2024-03-16T06:01:00.305Z,8.94
2024-03-16T06:04:01.790Z,8.93
2024-03-16T06:07:03.502Z,9.30
2024-03-16T06:10:05.227Z,8.95
2024-03-16T06:13:06.747Z,9.14
2024-03-16T06:16:08.280Z,9.06
2024-03-16T06:19:09.874Z,9.16
2024-03-16T06:22:11.616Z,9.19
2024-03-16T06:25:14.404Z,9.17
2024-03-16T06:28:18.487Z,9.15
2024-03-16T06:31:27.970Z,9.10
2024-03-16T06:34:29.770Z,9.25
2024-03-16T06:37:31.216Z,9.08
2024-03-16T06:40:32.673Z,9.30
2024-03-16T06:43:35.025Z,9.49
2024-03-16T06:46:36.467Z,9.54
2024-03-16T06:49:37.924Z,9.55
2024-03-16T06:52:39.738Z,9.70
2024-03-16T06:55:42.011Z,9.49
2024-03-16T06:58:43.466Z,9.71
2024-03-16T07:01:45.152Z,9.58
2024-03-16T07:04:46.668Z,9.69
2024-03-16T07:07:48.168Z,9.62
2024-03-16T07:10:49.675Z,9.66
2024-03-16T07:13:52.003Z,9.54
2024-03-16T07:16:53.493Z,9.81
2024-03-16T07:19:55.264Z,10.00
2024-03-16T07:22:57.037Z,9.89
2024-03-16T07:25:59.623Z,10.14
2024-03-16T07:29:01.078Z,10.05
2024-03-16T07:32:02.536Z,9.78
2024-03-16T07:35:07.563Z,10.30
2024-03-16T07:38:09.459Z,10.17
2024-03-16T07:41:10.888Z,10.20
2024-03-16T07:44:12.832Z,10.46
2024-03-16T07:47:14.377Z,10.50
2024-03-16T07:50:15.924Z,10.48
2024-03-16T07:53:17.502Z,10.40
2024-03-16T07:56:19.782Z,10.58
2024-03-16T07:59:21.313Z,10.41
2024-03-16T08:02:22.863Z,10.78
2024-03-16T08:05:24.938Z,10.75
2024-03-16T08:08:26.387Z,10.59
2024-03-16T08:11:29.139Z,10.55
2024-03-16T08:14:36.060Z,10.81
2024-03-16T08:17:37.613Z,10.61
2024-03-16T08:20:39.089Z,11.00
2024-03-16T08:23:40.510Z,10.84
2024-03-16T08:26:41.987Z,10.87
2024-03-16T08:29:43.428Z,10.73
2024-03-16T08:32:44.941Z,10.99
2024-03-16T08:35:46.373Z,10.83
2024-03-16T08:38:47.933Z,10.90
2024-03-16T08:41:49.500Z,10.59
2024-03-16T08:44:51.002Z,10.46
2024-03-16T08:47:52.617Z,10.27
2024-03-16T08:50:58.189Z,10.24
2024-03-16T08:53:59.607Z,10.22
2024-03-16T08:57:01.323Z,10.47
2024-03-16T09:00:05.507Z,10.33
2024-03-16T09:03:07.058Z,10.29
2024-03-16T09:06:08.841Z,10.16
2024-03-16T09:09:13.112Z,10.50
2024-03-16T09:12:14.780Z,10.56
2024-03-16T09:15:18.552Z,10.36
2024-03-16T09:18:20.005Z,10.03
2024-03-16T09:21:21.423Z,10.22
2024-03-16T09:24:23.574Z,10.01
2024-03-16T09:27:24.986Z,10.62
2024-03-16T09:30:26.610Z,10.75
2024-03-16T09:33:28.422Z,10.90
2024-03-16T09:36:29.861Z,10.86
2024-03-16T09:39:31.351Z,10.72
2024-03-16T09:42:34.031Z,10.87
